sensor_id;sensor_type;location;lat;lon;timestamp;pressure;altitude;pressure_sealevel;temperature;humidity
76732;BME280;65656;51.130;13.658;2023-12-20T00:00:22;98772.25;;;4.32;100.00
76732;BME280;65656;51.130;13.658;2023-12-20T00:04:24;98760.88;;;4.23;100.00
76732;BME280;65656;51.130;13.658;2023-12-20T00:08:25;98753.91;;;4.27;100.00
76732;BME280;65656;51.130;13.658;2023-12-20T00:12:27;98755.88;;;4.20;100.00
76732;BME280;65656;51.130;13.658;2023-12-20T00:16:30;98743.66;;;4.11;100.00
76732;BME280;65656;51.130;13.658;2023-12-20T00:20:32;98743.38;;;4.01;100.00
76732;BME280;65656;51.130;13.658;2023-12-20T00:24:34;98750.03;;;4.05;100.00
76732;BME280;65656;51.130;13.658;2023-12-20T00:28:35;98740.06;;;3.99;100.00
76732;BME280;65656;51.130;13.658;2023-12-20T00:32:41;98746.38;;;3.92;100.00
76732;BME280;65656;51.130;13.658;2023-12-20T00:36:42;98743.84;;;3.98;100.00
76732;BME280;65656;51.130;13.658;2023-12-20T00:40:44;98739.38;;;3.85;100.00
76732;BME280;65656;51.130;13.658;2023-12-20T00:44:45;98725.59;;;3.86;100.00
76732;BME280;65656;51.130;13.658;2023-12-20T00:48:49;98729.34;;;3.85;100.00
76732;BME280;65656;51.130;13.658;2023-12-20T00:52:50;98719.09;;;3.87;100.00
76732;BME280;65656;51.130;13.658;2023-12-20T00:56:52;98737.31;;;3.80;100.00
76732;BME280;65656;51.130;13.658;2023-12-20T01:00:53;98714.38;;;3.83;100.00
76732;BME280;65656;51.130;13.658;2023-12-20T01:04:56;98699.84;;;3.77;100.00
76732;BME280;65656;51.130;13.658;2023-12-20T01:08:58;98706.38;;;3.88;100.00
76732;BME280;65656;51.130;13.658;2023-12-20T01:12:59;98701.53;;;3.72;100.00
76732;BME280;65656;51.130;13.658;2023-12-20T01:17:01;98696.06;;;3.78;100.00
76732;BME280;65656;51.130;13.658;2023-12-20T01:21:04;98696.97;;;3.72;100.00
76732;BME280;65656;51.130;13.658;2023-12-20T01:25:06;98684.75;;;3.63;100.00
76732;BME280;65656;51.130;13.658;2023-12-20T01:29:09;98691.53;;;3.72;100.00
76732;BME280;65656;51.130;13.658;2023-12-20T01:33:11;98680.03;;;3.58;100.00
76732;BME280;65656;51.130;13.658;2023-12-20T01:37:14;98680.34;;;3.69;100.00
76732;BME280;65656;51.130;13.658;2023-12-20T01:41:15;98680.41;;;3.62;100.00
76732;BME280;65656;51.130;13.658;2023-12-20T01:45:17;98683.56;;;3.59;100.00
76732;BME280;65656;51.130;13.658;2023-12-20T01:49:18;98672.09;;;3.57;100.00
76732;BME280;65656;51.130;13.658;2023-12-20T01:53:23;98675.88;;;3.56;100.00
76732;BME280;65656;51.130;13.658;2023-12-20T01:57:27;98670.03;;;3.59;100.00
76732;BME280;65656;51.130;13.658;2023-12-20T02:01:29;98674.66;;;3.52;100.00
76732;BME280;65656;51.130;13.658;2023-12-20T02:05:31;98677.69;;;3.62;100.00
76732;BME280;65656;51.130;13.658;2023-12-20T02:09:35;98667.13;;;3.54;100.00
76732;BME280;65656;51.130;13.658;2023-12-20T02:13:36;98652.66;;;3.42;100.00
76732;BME280;65656;51.130;13.658;2023-12-20T02:17:39;98645.16;;;3.44;100.00
76732;BME280;65656;51.130;13.658;2023-12-20T02:21:42;98659.75;;;3.43;100.00
76732;BME280;65656;51.130;13.658;2023-12-20T02:25:44;98650.88;;;3.54;100.00
76732;BME280;65656;51.130;13.658;2023-12-20T02:29:47;98652.22;;;3.45;100.00
76732;BME280;65656;51.130;13.658;2023-12-20T02:33:48;98650.13;;;3.47;100.00
76732;BME280;65656;51.130;13.658;2023-12-20T02:37:51;98651.34;;;3.51;100.00
76732;BME280;65656;51.130;13.658;2023-12-20T02:41:53;98643.94;;;3.40;100.00
76732;BME280;65656;51.130;13.658;2023-12-20T02:45:54;98648.16;;;3.35;100.00
76732;BME280;65656;51.130;13.658;2023-12-20T02:49:56;98644.81;;;3.33;100.00
76732;BME280;65656;51.130;13.658;2023-12-20T02:53:59;98634.28;;;3.25;100.00
76732;BME280;65656;51.130;13.658;2023-12-20T02:58:01;98640.09;;;3.29;100.00
76732;BME280;65656;51.130;13.658;2023-12-20T03:02:03;98646.66;;;3.40;100.00
76732;BME280;65656;51.130;13.658;2023-12-20T03:06:04;98632.28;;;3.39;100.00
76732;BME280;65656;51.130;13.658;2023-12-20T03:10:08;98635.38;;;3.43;100.00
76732;BME280;65656;51.130;13.658;2023-12-20T03:14:20;98627.69;;;3.40;100.00
76732;BME280;65656;51.130;13.658;2023-12-20T03:18:22;98635.06;;;3.32;100.00
76732;BME280;65656;51.130;13.658;2023-12-20T03:22:23;98631.91;;;3.35;100.00
76732;BME280;65656;51.130;13.658;2023-12-20T03:26:26;98621.38;;;3.46;100.00
76732;BME280;65656;51.130;13.658;2023-12-20T03:30:28;98618.97;;;3.38;100.00
76732;BME280;65656;51.130;13.658;2023-12-20T03:34:29;98611.91;;;3.37;100.00
76732;BME280;65656;51.130;13.658;2023-12-20T03:38:31;98612.97;;;3.35;100.00
76732;BME280;65656;51.130;13.658;2023-12-20T03:42:34;98602.66;;;3.44;100.00
76732;BME280;65656;51.130;13.658;2023-12-20T03:46:36;98604.69;;;3.49;100.00
76732;BME280;65656;51.130;13.658;2023-12-20T03:50:37;98606.78;;;3.47;100.00
76732;BME280;65656;51.130;13.658;2023-12-20T03:54:39;98610.03;;;3.37;100.00
76732;BME280;65656;51.130;13.658;2023-12-20T03:58:42;98616.97;;;3.26;100.00
76732;BME280;65656;51.130;13.658;2023-12-20T04:02:44;98616.50;;;3.36;100.00
76732;BME280;65656;51.130;13.658;2023-12-20T04:06:46;98617.69;;;3.40;100.00
76732;BME280;65656;51.130;13.658;2023-12-20T04:10:47;98617.31;;;3.37;100.00
76732;BME280;65656;51.130;13.658;2023-12-20T04:14:50;98607.59;;;3.29;100.00
76732;BME280;65656;51.130;13.658;2023-12-20T04:18:52;98614.06;;;3.28;100.00
76732;BME280;65656;51.130;13.658;2023-12-20T04:22:54;98608.16;;;3.38;100.00
76732;BME280;65656;51.130;13.658;2023-12-20T04:26:55;98619.41;;;3.34;100.00
76732;BME280;65656;51.130;13.658;2023-12-20T04:30:58;98612.34;;;3.33;100.00
76732;BME280;65656;51.130;13.658;2023-12-20T04:35:00;98609.50;;;3.28;100.00
76732;BME280;65656;51.130;13.658;2023-12-20T04:39:02;98612.78;;;3.30;100.00
76732;BME280;65656;51.130;13.658;2023-12-20T04:43:03;98614.44;;;3.31;100.00
76732;BME280;65656;51.130;13.658;2023-12-20T04:47:06;98616.56;;;3.29;100.00
76732;BME280;65656;51.130;13.658;2023-12-20T04:51:08;98629.81;;;3.38;100.00
76732;BME280;65656;51.130;13.658;2023-12-20T04:55:09;98623.78;;;3.35;100.00
76732;BME280;65656;51.130;13.658;2023-12-20T04:59:11;98627.28;;;3.43;100.00
76732;BME280;65656;51.130;13.658;2023-12-20T05:03:14;98627.28;;;3.43;100.00
76732;BME280;65656;51.130;13.658;2023-12-20T05:07:15;98622.28;;;3.40;100.00
76732;BME280;65656;51.130;13.658;2023-12-20T05:11:17;98633.94;;;3.40;100.00
76732;BME280;65656;51.130;13.658;2023-12-20T05:15:19;98630.69;;;3.31;100.00
76732;BME280;65656;51.130;13.658;2023-12-20T05:19:23;98636.28;;;3.37;100.00
76732;BME280;65656;51.130;13.658;2023-12-20T05:23:24;98641.06;;;3.34;100.00
76732;BME280;65656;51.130;13.658;2023-12-20T05:27:26;98644.41;;;3.37;100.00
76732;BME280;65656;51.130;13.658;2023-12-20T05:31:28;98634.28;;;3.50;100.00
76732;BME280;65656;51.130;13.658;2023-12-20T05:35:31;98644.25;;;3.50;100.00
76732;BME280;65656;51.130;13.658;2023-12-20T05:39:33;98650.06;;;3.53;100.00
76732;BME280;65656;51.130;13.658;2023-12-20T05:43:34;98641.94;;;3.53;100.00
76732;BME280;65656;51.130;13.658;2023-12-20T05:47:36;98646.59;;;3.46;100.00
76732;BME280;65656;51.130;13.658;2023-12-20T05:51:39;98650.13;;;3.47;100.00
76732;BME280;65656;51.130;13.658;2023-12-20T05:55:41;98665.50;;;3.53;100.00
76732;BME280;65656;51.130;13.658;2023-12-20T05:59:42;98666.38;;;3.47;100.00
76732;BME280;65656;51.130;13.658;2023-12-20T06:03:44;98668.03;;;3.48;100.00
76732;BME280;65656;51.130;13.658;2023-12-20T06:07:47;98684.59;;;3.58;100.00
76732;BME280;65656;51.130;13.658;2023-12-20T06:11:49;98667.13;;;3.54;100.00
76732;BME280;65656;51.130;13.658;2023-12-20T06:15:51;98663.84;;;3.52;100.00
76732;BME280;65656;51.130;13.658;2023-12-20T06:19:53;98673.00;;;3.51;100.00
76732;BME280;65656;51.130;13.658;2023-12-20T06:23:56;98679.63;;;3.55;100.00
76732;BME280;65656;51.130;13.658;2023-12-20T06:27:57;98687.16;;;3.53;100.00
76732;BME280;65656;51.130;13.658;2023-12-20T06:31:59;98689.88;;;3.53;100.00
76732;BME280;65656;51.130;13.658;2023-12-20T06:36:00;98703.72;;;3.63;100.00
76732;BME280;65656;51.130;13.658;2023-12-20T06:40:05;98706.72;;;3.55;100.00
76732;BME280;65656;51.130;13.658;2023-12-20T06:44:07;98722.09;;;3.61;100.00
76732;BME280;65656;51.130;13.658;2023-12-20T06:48:09;98718.78;;;3.59;100.00
76732;BME280;65656;51.130;13.658;2023-12-20T06:52:10;98729.06;;;3.50;100.00
76732;BME280;65656;51.130;13.658;2023-12-20T06:56:13;98728.84;;;3.52;100.00
76732;BME280;65656;51.130;13.658;2023-12-20T07:00:19;98738.84;;;3.51;100.00
76732;BME280;65656;51.130;13.658;2023-12-20T07:04:21;98734.25;;;3.52;100.00
76732;BME280;65656;51.130;13.658;2023-12-20T07:08:23;98730.03;;;3.56;100.00
76732;BME280;65656;51.130;13.658;2023-12-20T07:12:26;98722.09;;;3.61;100.00
76732;BME280;65656;51.130;13.658;2023-12-20T07:16:28;98718.25;;;3.69;100.00
76732;BME280;65656;51.130;13.658;2023-12-20T07:20:30;98720.28;;;3.73;100.00
76732;BME280;65656;51.130;13.658;2023-12-20T07:24:34;98737.75;;;3.77;100.00
76732;BME280;65656;51.130;13.658;2023-12-20T07:28:37;98737.59;;;3.72;100.00
76732;BME280;65656;51.130;13.658;2023-12-20T07:32:39;98734.78;;;3.85;100.00
76732;BME280;65656;51.130;13.658;2023-12-20T07:36:41;98724.69;;;3.92;100.00
76732;BME280;65656;51.130;13.658;2023-12-20T07:40:43;98727.22;;;3.87;100.00
76732;BME280;65656;51.130;13.658;2023-12-20T07:44:45;98720.16;;;3.86;100.00
76732;BME280;65656;51.130;13.658;2023-12-20T07:48:47;98710.97;;;3.87;100.00
76732;BME280;65656;51.130;13.658;2023-12-20T07:52:49;98713.63;;;3.76;100.00
76732;BME280;65656;51.130;13.658;2023-12-20T07:56:50;98717.69;;;3.85;100.00
76732;BME280;65656;51.130;13.658;2023-12-20T08:00:53;98711.97;;;3.93;100.00
76732;BME280;65656;51.130;13.658;2023-12-20T08:04:55;98704.78;;;3.80;100.00
76732;BME280;65656;51.130;13.658;2023-12-20T08:08:57;98714.44;;;3.76;100.00
76732;BME280;65656;51.130;13.658;2023-12-20T08:13:07;98718.03;;;3.88;100.00
76732;BME280;65656;51.130;13.658;2023-12-20T08:17:10;98719.56;;;4.03;100.00
76732;BME280;65656;51.130;13.658;2023-12-20T08:21:11;98714.03;;;3.98;100.00
76732;BME280;65656;51.130;13.658;2023-12-20T08:25:13;98714.38;;;4.01;100.00
76732;BME280;65656;51.130;13.658;2023-12-20T08:29:14;98708.44;;;3.92;100.00
76732;BME280;65656;51.130;13.658;2023-12-20T08:33:17;98707.53;;;3.99;100.00
76732;BME280;65656;51.130;13.658;2023-12-20T08:37:19;98715.38;;;4.07;100.00
76732;BME280;65656;51.130;13.658;2023-12-20T08:41:21;98710.78;;;4.07;100.00
76732;BME280;65656;51.130;13.658;2023-12-20T08:45:22;98711.00;;;4.24;100.00
76732;BME280;65656;51.130;13.658;2023-12-20T08:49:25;98706.47;;;4.18;100.00
76732;BME280;65656;51.130;13.658;2023-12-20T08:53:27;98726.03;;;4.20;100.00
76732;BME280;65656;51.130;13.658;2023-12-20T08:57:29;98726.50;;;4.17;100.00
76732;BME280;65656;51.130;13.658;2023-12-20T09:01:30;98723.44;;;4.13;100.00
76732;BME280;65656;51.130;13.658;2023-12-20T09:05:35;98717.31;;;4.18;100.00
76732;BME280;65656;51.130;13.658;2023-12-20T09:09:40;98718.38;;;4.17;100.00
76732;BME280;65656;51.130;13.658;2023-12-20T09:13:41;98723.06;;;4.28;100.00
76732;BME280;65656;51.130;13.658;2023-12-20T09:17:43;98711.69;;;4.38;100.00
76732;BME280;65656;51.130;13.658;2023-12-20T09:21:46;98718.28;;;4.42;100.00
76732;BME280;65656;51.130;13.658;2023-12-20T09:25:48;98710.84;;;4.37;100.00
76732;BME280;65656;51.130;13.658;2023-12-20T09:29:49;98710.94;;;4.31;100.00
76732;BME280;65656;51.130;13.658;2023-12-20T09:33:51;98722.75;;;4.36;100.00
76732;BME280;65656;51.130;13.658;2023-12-20T09:37:54;98712.81;;;4.30;100.00
76732;BME280;65656;51.130;13.658;2023-12-20T09:42:00;98696.34;;;4.43;100.00
76732;BME280;65656;51.130;13.658;2023-12-20T09:46:05;98680.19;;;4.67;100.00
76732;BME280;65656;51.130;13.658;2023-12-20T09:50:08;98695.03;;;4.94;100.00
76732;BME280;65656;51.130;13.658;2023-12-20T09:54:11;98687.78;;;5.07;100.00
76732;BME280;65656;51.130;13.658;2023-12-20T09:58:13;98697.81;;;5.18;100.00
76732;BME280;65656;51.130;13.658;2023-12-20T10:02:17;98704.22;;;5.35;100.00
76732;BME280;65656;51.130;13.658;2023-12-20T10:06:23;98683.34;;;5.47;100.00
76732;BME280;65656;51.130;13.658;2023-12-20T10:10:26;98676.00;;;5.36;100.00
76732;BME280;65656;51.130;13.658;2023-12-20T10:14:42;98664.19;;;5.42;100.00
76732;BME280;65656;51.130;13.658;2023-12-20T10:18:45;98660.50;;;5.37;100.00
76732;BME280;65656;51.130;13.658;2023-12-20T10:22:46;98663.72;;;5.22;100.00
76732;BME280;65656;51.130;13.658;2023-12-20T10:27:01;98657.13;;;5.29;100.00
76732;BME280;65656;51.130;13.658;2023-12-20T10:31:02;98620.72;;;5.42;100.00
76732;BME280;65656;51.130;13.658;2023-12-20T10:35:05;98643.53;;;5.53;100.00
76732;BME280;65656;51.130;13.658;2023-12-20T10:39:08;98649.41;;;5.73;100.00
76732;BME280;65656;51.130;13.658;2023-12-20T10:43:12;98639.16;;;5.64;100.00
76732;BME280;65656;51.130;13.658;2023-12-20T10:47:15;98632.03;;;5.86;100.00
76732;BME280;65656;51.130;13.658;2023-12-20T10:51:17;98628.84;;;6.01;100.00
76732;BME280;65656;51.130;13.658;2023-12-20T10:55:19;98626.34;;;6.11;100.00
76732;BME280;65656;51.130;13.658;2023-12-20T10:59:23;98632.78;;;5.93;100.00
76732;BME280;65656;51.130;13.658;2023-12-20T11:03:27;98630.97;;;6.10;100.00
76732;BME280;65656;51.130;13.658;2023-12-20T11:07:35;98632.97;;;6.03;100.00
76732;BME280;65656;51.130;13.658;2023-12-20T11:11:57;98619.97;;;6.05;100.00
76732;BME280;65656;51.130;13.658;2023-12-20T11:16:04;98618.22;;;5.87;100.00
76732;BME280;65656;51.130;13.658;2023-12-20T11:20:08;98606.53;;;5.64;100.00
76732;BME280;65656;51.130;13.658;2023-12-20T11:24:10;98630.78;;;5.53;100.00
76732;BME280;65656;51.130;13.658;2023-12-20T11:28:13;98609.97;;;5.47;100.00
76732;BME280;65656;51.130;13.658;2023-12-20T11:32:29;98623.09;;;5.50;100.00
76732;BME280;65656;51.130;13.658;2023-12-20T11:36:32;98606.78;;;5.50;100.00
76732;BME280;65656;51.130;13.658;2023-12-20T11:40:35;98596.41;;;5.47;100.00
76732;BME280;65656;51.130;13.658;2023-12-20T11:44:37;98604.53;;;5.36;100.00
76732;BME280;65656;51.130;13.658;2023-12-20T11:48:40;98604.66;;;5.52;100.00
76732;BME280;65656;51.130;13.658;2023-12-20T11:52:41;98588.22;;;5.71;100.00
76732;BME280;65656;51.130;13.658;2023-12-20T11:56:43;98579.81;;;5.84;99.26
76732;BME280;65656;51.130;13.658;2023-12-20T12:00:48;98574.91;;;6.09;98.01
76732;BME280;65656;51.130;13.658;2023-12-20T12:04:54;98563.75;;;6.23;96.56
76732;BME280;65656;51.130;13.658;2023-12-20T12:08:56;98562.47;;;6.42;96.31
76732;BME280;65656;51.130;13.658;2023-12-20T12:12:58;98562.38;;;6.37;94.94
76732;BME280;65656;51.130;13.658;2023-12-20T12:16:59;98554.03;;;6.27;94.55
76732;BME280;65656;51.130;13.658;2023-12-20T12:21:03;98551.75;;;6.52;93.72
76732;BME280;65656;51.130;13.658;2023-12-20T12:25:13;98556.13;;;6.53;93.73
76732;BME280;65656;51.130;13.658;2023-12-20T12:29:15;98537.00;;;6.48;93.03
76732;BME280;65656;51.130;13.658;2023-12-20T12:33:17;98520.31;;;6.28;94.19
76732;BME280;65656;51.130;13.658;2023-12-20T12:37:20;98519.44;;;6.39;95.03
76732;BME280;65656;51.130;13.658;2023-12-20T12:41:22;98510.72;;;6.70;92.79
76732;BME280;65656;51.130;13.658;2023-12-20T12:45:23;98530.44;;;6.78;90.72
76732;BME280;65656;51.130;13.658;2023-12-20T12:49:25;98499.25;;;6.68;91.65
76732;BME280;65656;51.130;13.658;2023-12-20T12:53:31;98493.63;;;6.58;91.57
76732;BME280;65656;51.130;13.658;2023-12-20T12:57:32;98492.50;;;6.54;91.86
76732;BME280;65656;51.130;13.658;2023-12-20T13:01:34;98491.47;;;6.60;93.59
76732;BME280;65656;51.130;13.658;2023-12-20T13:05:36;98486.38;;;6.47;90.42
76732;BME280;65656;51.130;13.658;2023-12-20T13:09:43;98484.22;;;6.49;91.43
76732;BME280;65656;51.130;13.658;2023-12-20T13:13:45;98476.38;;;6.36;90.32
76732;BME280;65656;51.130;13.658;2023-12-20T13:17:46;98466.72;;;6.45;90.32
76732;BME280;65656;51.130;13.658;2023-12-20T13:21:49;98482.31;;;6.33;89.37
76732;BME280;65656;51.130;13.658;2023-12-20T13:25:51;98473.81;;;6.29;90.08
76732;BME280;65656;51.130;13.658;2023-12-20T13:29:53;98461.63;;;6.32;90.45
76732;BME280;65656;51.130;13.658;2023-12-20T13:33:55;98461.25;;;6.11;90.32
76732;BME280;65656;51.130;13.658;2023-12-20T13:37:56;98454.50;;;6.14;92.29
76732;BME280;65656;51.130;13.658;2023-12-20T13:41:59;98457.47;;;6.12;91.66
76732;BME280;65656;51.130;13.658;2023-12-20T13:46:02;98456.50;;;6.19;91.70
76732;BME280;65656;51.130;13.658;2023-12-20T13:50:04;98443.59;;;5.97;91.60
76732;BME280;65656;51.130;13.658;2023-12-20T13:54:06;98442.13;;;6.06;92.07
76732;BME280;65656;51.130;13.658;2023-12-20T13:58:09;98438.53;;;5.89;93.57
76732;BME280;65656;51.130;13.658;2023-12-20T14:02:10;98433.22;;;5.94;92.35
76732;BME280;65656;51.130;13.658;2023-12-20T14:06:12;98426.59;;;5.90;93.04
76732;BME280;65656;51.130;13.658;2023-12-20T14:10:13;98434.56;;;5.92;92.61
76732;BME280;65656;51.130;13.658;2023-12-20T14:14:17;98427.22;;;5.80;93.48
76732;BME280;65656;51.130;13.658;2023-12-20T14:18:18;98420.47;;;5.83;93.18
76732;BME280;65656;51.130;13.658;2023-12-20T14:22:20;98421.25;;;5.67;94.62
76732;BME280;65656;51.130;13.658;2023-12-20T14:26:22;98407.59;;;5.62;93.86
76732;BME280;65656;51.130;13.658;2023-12-20T14:30:25;98418.09;;;5.58;93.83
76732;BME280;65656;51.130;13.658;2023-12-20T14:34:26;98407.38;;;5.51;94.59
76732;BME280;65656;51.130;13.658;2023-12-20T14:38:28;98422.72;;;5.57;94.90
76732;BME280;65656;51.130;13.658;2023-12-20T14:42:30;98417.28;;;5.57;95.74
76732;BME280;65656;51.130;13.658;2023-12-20T14:46:33;98409.69;;;5.59;95.50
76732;BME280;65656;51.130;13.658;2023-12-20T14:50:34;98416.13;;;5.53;94.69
76732;BME280;65656;51.130;13.658;2023-12-20T14:54:36;98407.97;;;5.53;94.90
76732;BME280;65656;51.130;13.658;2023-12-20T14:58:38;98404.78;;;5.56;94.20
76732;BME280;65656;51.130;13.658;2023-12-20T15:02:41;98417.41;;;5.51;96.04
76732;BME280;65656;51.130;13.658;2023-12-20T15:06:42;98412.34;;;5.54;96.59
76732;BME280;65656;51.130;13.658;2023-12-20T15:10:44;98417.09;;;5.47;96.25
76732;BME280;65656;51.130;13.658;2023-12-20T15:14:46;98408.38;;;5.45;96.05
76732;BME280;65656;51.130;13.658;2023-12-20T15:18:49;98418.53;;;5.38;96.37
76732;BME280;65656;51.130;13.658;2023-12-20T15:22:50;98419.22;;;5.45;96.68
76732;BME280;65656;51.130;13.658;2023-12-20T15:26:52;98413.13;;;5.38;97.07
76732;BME280;65656;51.130;13.658;2023-12-20T15:30:53;98412.13;;;5.44;96.97
76732;BME280;65656;51.130;13.658;2023-12-20T15:34:58;98417.16;;;5.52;95.49
76732;BME280;65656;51.130;13.658;2023-12-20T15:39:00;98429.75;;;5.42;96.97
76732;BME280;65656;51.130;13.658;2023-12-20T15:43:02;98433.84;;;5.44;97.65
76732;BME280;65656;51.130;13.658;2023-12-20T15:47:03;98423.00;;;5.44;97.24
76732;BME280;65656;51.130;13.658;2023-12-20T15:51:07;98428.34;;;5.27;97.93
76732;BME280;65656;51.130;13.658;2023-12-20T15:55:10;98429.88;;;5.35;98.04
76732;BME280;65656;51.130;13.658;2023-12-20T15:59:12;98428.22;;;5.34;99.26
76732;BME280;65656;51.130;13.658;2023-12-20T16:03:13;98435.31;;;5.35;99.13
76732;BME280;65656;51.130;13.658;2023-12-20T16:07:27;98436.88;;;5.31;98.74
76732;BME280;65656;51.130;13.658;2023-12-20T16:11:29;98434.16;;;5.31;98.47
76732;BME280;65656;51.130;13.658;2023-12-20T16:15:31;98443.38;;;5.30;99.53
76732;BME280;65656;51.130;13.658;2023-12-20T16:19:32;98440.53;;;5.25;99.38
76732;BME280;65656;51.130;13.658;2023-12-20T16:23:35;98441.69;;;5.29;99.33
76732;BME280;65656;51.130;13.658;2023-12-20T16:27:40;98441.47;;;5.30;99.01
76732;BME280;65656;51.130;13.658;2023-12-20T16:31:43;98444.91;;;5.26;99.66
76732;BME280;65656;51.130;13.658;2023-12-20T16:35:45;98437.94;;;5.30;99.47
76732;BME280;65656;51.130;13.658;2023-12-20T16:39:49;98453.03;;;5.26;99.69
76732;BME280;65656;51.130;13.658;2023-12-20T16:43:50;98449.25;;;5.27;100.00
76732;BME280;65656;51.130;13.658;2023-12-20T16:47:53;98449.88;;;5.17;100.00
76732;BME280;65656;51.130;13.658;2023-12-20T16:51:54;98446.09;;;5.18;100.00
76732;BME280;65656;51.130;13.658;2023-12-20T16:55:57;98449.31;;;5.03;100.00
76732;BME280;65656;51.130;13.658;2023-12-20T16:59:59;98453.81;;;4.86;100.00
76732;BME280;65656;51.130;13.658;2023-12-20T17:04:01;98451.69;;;4.65;100.00
76732;BME280;65656;51.130;13.658;2023-12-20T17:08:03;98448.25;;;4.58;100.00
76732;BME280;65656;51.130;13.658;2023-12-20T17:12:06;98469.47;;;4.37;100.00
76732;BME280;65656;51.130;13.658;2023-12-20T17:16:08;98472.63;;;4.34;100.00
76732;BME280;65656;51.130;13.658;2023-12-20T17:20:10;98468.81;;;4.12;100.00
76732;BME280;65656;51.130;13.658;2023-12-20T17:24:11;98485.06;;;4.12;100.00
76732;BME280;65656;51.130;13.658;2023-12-20T17:28:14;98484.38;;;4.05;100.00
76732;BME280;65656;51.130;13.658;2023-12-20T17:32:16;98479.72;;;3.94;100.00
76732;BME280;65656;51.130;13.658;2023-12-20T17:36:17;98477.94;;;3.87;100.00
76732;BME280;65656;51.130;13.658;2023-12-20T17:40:19;98496.91;;;3.87;100.00
76732;BME280;65656;51.130;13.658;2023-12-20T17:44:22;98478.88;;;3.81;100.00
76732;BME280;65656;51.130;13.658;2023-12-20T17:48:23;98486.38;;;3.79;100.00
76732;BME280;65656;51.130;13.658;2023-12-20T17:52:25;98480.59;;;3.76;100.00
76732;BME280;65656;51.130;13.658;2023-12-20T17:56:27;98488.50;;;3.77;100.00
76732;BME280;65656;51.130;13.658;2023-12-20T18:00:33;98500.56;;;3.63;100.00
76732;BME280;65656;51.130;13.658;2023-12-20T18:04:35;98487.19;;;3.50;100.00
76732;BME280;65656;51.130;13.658;2023-12-20T18:08:37;98500.94;;;3.48;100.00
76732;BME280;65656;51.130;13.658;2023-12-20T18:12:38;98496.81;;;3.46;100.00
76732;BME280;65656;51.130;13.658;2023-12-20T18:16:41;98487.94;;;3.39;100.00
76732;BME280;65656;51.130;13.658;2023-12-20T18:20:43;98500.75;;;3.31;100.00
76732;BME280;65656;51.130;13.658;2023-12-20T18:24:45;98494.78;;;3.23;100.00
76732;BME280;65656;51.130;13.658;2023-12-20T18:28:49;98495.47;;;3.18;100.00
76732;BME280;65656;51.130;13.658;2023-12-20T18:32:52;98507.03;;;3.25;100.00
76732;BME280;65656;51.130;13.658;2023-12-20T18:36:53;98507.81;;;3.32;100.00
76732;BME280;65656;51.130;13.658;2023-12-20T18:40:55;98509.00;;;3.18;100.00
76732;BME280;65656;51.130;13.658;2023-12-20T18:44:58;98511.56;;;3.31;100.00
76732;BME280;65656;51.130;13.658;2023-12-20T18:49:01;98508.69;;;3.26;100.00
76732;BME280;65656;51.130;13.658;2023-12-20T18:53:03;98513.28;;;3.26;100.00
76732;BME280;65656;51.130;13.658;2023-12-20T18:57:05;98516.97;;;3.31;100.00
76732;BME280;65656;51.130;13.658;2023-12-20T19:01:06;98513.97;;;3.40;100.00
76732;BME280;65656;51.130;13.658;2023-12-20T19:05:09;98510.19;;;3.41;100.00
76732;BME280;65656;51.130;13.658;2023-12-20T19:09:11;98505.41;;;3.43;100.00
76732;BME280;65656;51.130;13.658;2023-12-20T19:13:13;98508.13;;;3.43;100.00
76732;BME280;65656;51.130;13.658;2023-12-20T19:17:14;98506.75;;;3.33;100.00
76732;BME280;65656;51.130;13.658;2023-12-20T19:21:17;98504.97;;;3.27;100.00
76732;BME280;65656;51.130;13.658;2023-12-20T19:25:19;98504.69;;;3.11;100.00
76732;BME280;65656;51.130;13.658;2023-12-20T19:29:20;98495.63;;;3.05;100.00
76732;BME280;65656;51.130;13.658;2023-12-20T19:33:22;98492.69;;;3.06;100.00
76732;BME280;65656;51.130;13.658;2023-12-20T19:37:25;98479.38;;;3.05;100.00
76732;BME280;65656;51.130;13.658;2023-12-20T19:41:28;98475.22;;;3.02;100.00
76732;BME280;65656;51.130;13.658;2023-12-20T19:45:29;98472.31;;;3.04;100.00
76732;BME280;65656;51.130;13.658;2023-12-20T19:49:31;98474.34;;;3.08;100.00
76732;BME280;65656;51.130;13.658;2023-12-20T19:53:34;98467.44;;;3.13;100.00
76732;BME280;65656;51.130;13.658;2023-12-20T19:57:35;98464.78;;;3.24;100.00
76732;BME280;65656;51.130;13.658;2023-12-20T20:01:37;98447.94;;;3.22;100.00
76732;BME280;65656;51.130;13.658;2023-12-20T20:05:39;98453.72;;;3.26;100.00
76732;BME280;65656;51.130;13.658;2023-12-20T20:09:42;98446.44;;;3.45;100.00
76732;BME280;65656;51.130;13.658;2023-12-20T20:13:43;98443.41;;;3.53;100.00
76732;BME280;65656;51.130;13.658;2023-12-20T20:17:45;98439.63;;;3.54;100.00
76732;BME280;65656;51.130;13.658;2023-12-20T20:21:48;98430.69;;;3.53;100.00
76732;BME280;65656;51.130;13.658;2023-12-20T20:25:50;98432.09;;;3.56;100.00
76732;BME280;65656;51.130;13.658;2023-12-20T20:29:53;98422.09;;;3.56;100.00
76732;BME280;65656;51.130;13.658;2023-12-20T20:33:54;98408.03;;;3.66;100.00
76732;BME280;65656;51.130;13.658;2023-12-20T20:37:56;98394.00;;;3.69;100.00
76732;BME280;65656;51.130;13.658;2023-12-20T20:41:59;98392.78;;;3.65;100.00
76732;BME280;65656;51.130;13.658;2023-12-20T20:46:01;98392.22;;;3.63;100.00
76732;BME280;65656;51.130;13.658;2023-12-20T20:50:04;98382.09;;;3.70;100.00
76732;BME280;65656;51.130;13.658;2023-12-20T20:54:06;98374.47;;;3.67;100.00
76732;BME280;65656;51.130;13.658;2023-12-20T20:58:20;98374.38;;;3.74;100.00
76732;BME280;65656;51.130;13.658;2023-12-20T21:02:21;98371.84;;;3.72;100.00
76732;BME280;65656;51.130;13.658;2023-12-20T21:06:23;98360.09;;;3.78;100.00
76732;BME280;65656;51.130;13.658;2023-12-20T21:10:25;98357.53;;;3.83;100.00